Time;durP1;ratioP1;P1;durP2;ratioP2;P2;SDS_P1;SDS_P2;PMS_P1;PMS_P2;Temp;Humidity;BMP_temperature;BMP_pressure;BME280_temperature;BME280_humidity;BME280_pressure;Samples;Min_cycle;Max_cycle;Signal;HPM_P1;HPM_P2
2022/11/13 00:01:46;;;;;;;;;;;2.90;99.90;;;;;;5043354;28;19964;-68
2022/11/13 00:04:12;;;;;;;;;;;3.00;99.90;;;;;;5044665;28;20015;-67
2022/11/13 00:06:39;;;;;;;;;;;2.90;99.90;;;;;;5044188;28;20255;-71
2022/11/13 00:09:06;;;;;;;;;;;2.90;99.90;;;;;;5044583;28;19956;-68
2022/11/13 00:11:32;;;;;;;;;;;2.90;99.90;;;;;;5044277;28;20195;-68
2022/11/13 00:13:59;;;;;;;;;;;2.90;99.90;;;;;;5044535;28;19984;-69
2022/11/13 00:16:25;;;;;;;;;;;2.90;99.90;;;;;;5044276;28;19921;-68
2022/11/13 00:18:53;;;;;;;;;;;2.90;99.90;;;;;;5044508;28;19984;-68
2022/11/13 00:21:23;;;;;;;;;;;2.90;99.90;;;;;;5044094;28;19964;-68
2022/11/13 00:23:50;;;;;;;;;;;2.90;99.90;;;;;;5044450;28;19960;-68
2022/11/13 00:26:17;;;;;;;;;;;2.90;99.90;;;;;;5043735;28;20259;-68
2022/11/13 00:28:44;;;;;;;;;;;2.90;99.90;;;;;;5044100;28;19960;-68
2022/11/13 00:31:11;;;;;;;;;;;2.80;99.90;;;;;;5043860;28;20209;-68
2022/11/13 00:33:38;;;;;;;;;;;2.80;99.90;;;;;;5043904;28;19956;-68
2022/11/13 00:36:07;;;;;;;;;;;2.80;99.90;;;;;;5043680;28;19956;-68
2022/11/13 00:38:34;;;;;;;;;;;2.80;99.90;;;;;;5043771;28;20247;-69
2022/11/13 00:41:00;;;;;;;;;;;2.70;99.90;;;;;;5044480;28;19996;-68
2022/11/13 00:43:27;;;;;;;;;;;2.70;99.90;;;;;;5043800;28;19988;-68
2022/11/13 00:45:54;;;;;;;;;;;2.70;99.90;;;;;;5043548;28;19927;-70
2022/11/13 00:48:21;;;;;;;;;;;2.70;99.90;;;;;;5043986;28;19967;-68
2022/11/13 00:50:47;;;;;;;;;;;2.70;99.90;;;;;;5043680;28;20280;-68
2022/11/13 00:53:15;;;;;;;;;;;2.70;99.90;;;;;;5043874;28;19980;-68
2022/11/13 00:55:42;;;;;;;;;;;2.70;99.90;;;;;;5043756;28;19984;-67
2022/11/13 00:58:09;;;;;;;;;;;2.60;99.90;;;;;;5042888;28;20167;-68
2022/11/13 01:00:36;;;;;;;;;;;2.60;99.90;;;;;;5042745;28;20171;-68
2022/11/13 01:03:03;;;;;;;;;;;2.60;99.90;;;;;;5054699;28;20231;-70
2022/11/13 01:05:30;;;;;;;;;;;2.60;99.90;;;;;;5063308;28;19959;-68
2022/11/13 01:07:56;;;;;;;;;;;2.50;99.90;;;;;;5063463;28;19992;-68
2022/11/13 01:10:24;;;;;;;;;;;2.50;99.90;;;;;;5054804;28;19921;-68
2022/11/13 01:12:51;;;;;;;;;;;2.50;99.90;;;;;;5043783;28;19957;-68
2022/11/13 01:15:18;;;;;;;;;;;2.50;99.90;;;;;;5043172;28;19992;-68
2022/11/13 01:17:44;;;;;;;;;;;2.50;99.90;;;;;;5043692;28;19980;-68
2022/11/13 01:20:11;;;;;;;;;;;2.40;99.90;;;;;;5043595;28;19984;-68
2022/11/13 01:22:38;;;;;;;;;;;2.40;99.90;;;;;;5043500;28;20271;-68
2022/11/13 01:25:05;;;;;;;;;;;2.40;99.90;;;;;;5043008;28;19921;-67
2022/11/13 01:27:35;;;;;;;;;;;2.40;99.90;;;;;;5043620;28;19992;-69
2022/11/13 01:30:01;;;;;;;;;;;2.40;99.90;;;;;;5043543;28;19993;-67
2022/11/13 01:32:28;;;;;;;;;;;2.40;99.90;;;;;;5043438;28;19956;-68
2022/11/13 01:34:55;;;;;;;;;;;2.40;99.90;;;;;;5043310;28;20024;-68
2022/11/13 01:37:21;;;;;;;;;;;2.30;99.90;;;;;;5043584;28;19984;-68
2022/11/13 01:39:48;;;;;;;;;;;2.40;99.90;;;;;;5043458;28;20009;-68
2022/11/13 01:42:14;;;;;;;;;;;2.30;99.90;;;;;;5043089;28;19984;-68
2022/11/13 01:44:54;;;;;;;;;;;2.30;99.90;;;;;;5047170;28;19957;-68
2022/11/13 01:47:22;;;;;;;;;;;2.30;99.90;;;;;;5047111;28;19953;-68
2022/11/13 01:49:49;;;;;;;;;;;2.40;99.90;;;;;;5047306;28;19953;-68
2022/11/13 01:52:17;;;;;;;;;;;2.30;99.90;;;;;;5046838;28;20255;-68
2022/11/13 01:54:45;;;;;;;;;;;2.30;99.90;;;;;;5046962;28;19984;-69
2022/11/13 01:57:12;;;;;;;;;;;2.20;99.90;;;;;;5046737;28;19928;-69
2022/11/13 01:59:40;;;;;;;;;;;2.10;99.90;;;;;;5045270;28;19952;-68
2022/11/13 02:02:08;;;;;;;;;;;2.10;99.90;;;;;;5047016;28;20185;-68
2022/11/13 02:04:36;;;;;;;;;;;2.00;99.90;;;;;;5062060;28;19959;-67
2022/11/13 02:07:04;;;;;;;;;;;2.00;99.90;;;;;;5066965;28;19944;-68
2022/11/13 02:09:33;;;;;;;;;;;2.00;99.90;;;;;;5066901;28;19987;-69
2022/11/13 02:12:00;;;;;;;;;;;1.90;99.90;;;;;;5066862;28;19952;-68
2022/11/13 02:14:28;;;;;;;;;;;1.90;99.90;;;;;;5065345;28;19976;-69
2022/11/13 02:16:56;;;;;;;;;;;1.90;99.90;;;;;;5034205;28;20076;-67
2022/11/13 02:19:25;;;;;;;;;;;1.90;99.90;;;;;;5040301;28;20519;-69
2022/11/13 02:21:56;;;;;;;;;;;1.90;99.90;;;;;;5026683;28;19989;-68
2022/11/13 02:24:26;;;;;;;;;;;1.90;99.90;;;;;;5026942;28;19922;-69
2022/11/13 02:26:53;;;;;;;;;;;1.90;99.90;;;;;;5026092;28;19968;-68
2022/11/13 02:29:20;;;;;;;;;;;1.90;99.90;;;;;;5026751;28;20001;-68
2022/11/13 02:31:47;;;;;;;;;;;1.90;99.90;;;;;;5026707;28;19922;-68
2022/11/13 02:34:13;;;;;;;;;;;1.90;99.90;;;;;;5026385;28;19964;-69
2022/11/13 02:36:40;;;;;;;;;;;1.90;99.90;;;;;;5034221;28;19988;-68
2022/11/13 02:39:08;;;;;;;;;;;1.90;99.90;;;;;;5046435;28;19959;-68
2022/11/13 02:41:37;;;;;;;;;;;1.80;99.90;;;;;;5046169;28;19921;-68
2022/11/13 02:44:04;;;;;;;;;;;1.80;99.90;;;;;;5046213;28;19921;-68
2022/11/13 02:46:31;;;;;;;;;;;1.90;99.90;;;;;;5045805;28;19984;-68
2022/11/13 02:48:57;;;;;;;;;;;1.80;99.90;;;;;;5046167;28;19957;-68
2022/11/13 02:51:24;;;;;;;;;;;1.80;99.90;;;;;;5045633;28;19927;-68
2022/11/13 02:53:51;;;;;;;;;;;1.80;99.90;;;;;;5045955;28;19956;-68
2022/11/13 02:56:17;;;;;;;;;;;1.80;99.90;;;;;;5045379;28;19959;-68
2022/11/13 02:58:45;;;;;;;;;;;1.80;99.90;;;;;;5045629;28;19956;-68
2022/11/13 03:01:12;;;;;;;;;;;1.90;99.90;;;;;;5031342;28;19957;-68
2022/11/13 03:03:39;;;;;;;;;;;1.80;99.90;;;;;;5025758;28;19961;-68
2022/11/13 03:06:06;;;;;;;;;;;1.80;99.90;;;;;;5025720;28;19989;-68
2022/11/13 03:08:32;;;;;;;;;;;1.80;99.90;;;;;;5025859;28;19984;-68
2022/11/13 03:10:59;;;;;;;;;;;1.80;99.90;;;;;;5025860;28;19992;-68
2022/11/13 03:13:26;;;;;;;;;;;1.80;99.90;;;;;;5025808;28;19992;-68
2022/11/13 03:15:54;;;;;;;;;;;1.70;99.90;;;;;;5025419;28;20228;-68
2022/11/13 03:18:20;;;;;;;;;;;1.70;99.90;;;;;;5025423;28;20178;-68
2022/11/13 03:20:52;;;;;;;;;;;1.70;99.90;;;;;;5025434;28;19961;-68
2022/11/13 03:23:19;;;;;;;;;;;1.70;99.90;;;;;;5025546;28;20116;-69
2022/11/13 03:25:45;;;;;;;;;;;1.60;99.90;;;;;;5025479;28;19988;-68
2022/11/13 03:28:12;;;;;;;;;;;1.60;99.90;;;;;;5025643;28;19984;-68
2022/11/13 03:30:39;;;;;;;;;;;1.60;99.90;;;;;;5025272;28;19984;-69
2022/11/13 03:33:07;;;;;;;;;;;1.60;99.90;;;;;;5040782;28;19984;-68
2022/11/13 03:35:38;;;;;;;;;;;1.60;99.90;;;;;;5044830;28;19963;-68
2022/11/13 03:38:05;;;;;;;;;;;1.50;99.90;;;;;;5045261;28;19989;-68
2022/11/13 03:40:31;;;;;;;;;;;1.50;99.90;;;;;;5044833;28;20289;-68
2022/11/13 03:42:58;;;;;;;;;;;1.40;99.90;;;;;;5045056;28;19991;-68
2022/11/13 03:45:25;;;;;;;;;;;1.40;99.90;;;;;;5044833;28;20065;-67
2022/11/13 03:47:51;;;;;;;;;;;1.40;99.90;;;;;;5045064;28;19921;-68
2022/11/13 03:50:19;;;;;;;;;;;1.30;99.90;;;;;;5044603;28;20280;-68
2022/11/13 03:52:46;;;;;;;;;;;1.30;99.90;;;;;;5044744;28;20136;-68
2022/11/13 03:55:13;;;;;;;;;;;1.30;99.90;;;;;;5044197;28;20236;-68
2022/11/13 03:57:39;;;;;;;;;;;1.30;99.90;;;;;;5044855;28;19983;-69
2022/11/13 04:00:06;;;;;;;;;;;1.30;99.90;;;;;;5034240;28;19961;-68
2022/11/13 04:02:33;;;;;;;;;;;1.30;99.90;;;;;;5024733;28;20143;-68
2022/11/13 04:05:00;;;;;;;;;;;1.30;99.90;;;;;;5024594;28;19992;-68
2022/11/13 04:07:28;;;;;;;;;;;1.30;99.90;;;;;;5024595;28;19988;-68
2022/11/13 04:09:55;;;;;;;;;;;1.30;99.90;;;;;;5024942;28;20020;-68
2022/11/13 04:12:21;;;;;;;;;;;1.30;99.90;;;;;;5024733;28;20181;-68
2022/11/13 04:14:48;;;;;;;;;;;1.30;99.90;;;;;;5024562;28;19988;-68
2022/11/13 04:17:15;;;;;;;;;;;1.30;99.90;;;;;;5024828;28;19961;-68
2022/11/13 04:19:41;;;;;;;;;;;1.30;99.90;;;;;;5030041;28;19952;-68
2022/11/13 04:22:08;;;;;;;;;;;1.30;99.90;;;;;;5044004;28;20286;-69
2022/11/13 04:24:36;;;;;;;;;;;1.30;99.90;;;;;;5043900;28;20001;-68
2022/11/13 04:27:03;;;;;;;;;;;1.30;99.90;;;;;;5044283;28;19987;-68
2022/11/13 04:29:29;;;;;;;;;;;1.30;99.90;;;;;;5044062;28;19988;-68
2022/11/13 04:31:56;;;;;;;;;;;1.30;99.90;;;;;;5043898;28;20262;-68
2022/11/13 04:34:22;;;;;;;;;;;1.30;99.90;;;;;;5044268;28;19988;-68
2022/11/13 04:36:50;;;;;;;;;;;1.30;99.90;;;;;;5043527;28;19948;-68
2022/11/13 04:39:17;;;;;;;;;;;1.30;99.90;;;;;;5044056;28;19988;-68
2022/11/13 04:44:28;;;;;;;;;;;1.30;99.90;;;;;;5043779;28;19927;-68
2022/11/13 04:46:55;;;;;;;;;;;1.30;99.90;;;;;;5043821;28;19963;-68
2022/11/13 04:49:22;;;;;;;;;;;1.30;99.90;;;;;;5043879;28;20169;-68
2022/11/13 04:51:48;;;;;;;;;;;1.30;99.90;;;;;;5043546;28;20251;-68
2022/11/13 04:54:15;;;;;;;;;;;1.20;99.90;;;;;;5043796;28;19988;-69
2022/11/13 04:56:42;;;;;;;;;;;1.20;99.90;;;;;;5043292;28;19956;-68
2022/11/13 04:59:09;;;;;;;;;;;1.20;99.90;;;;;;5043761;28;19956;-68
2022/11/13 05:01:36;;;;;;;;;;;1.20;99.90;;;;;;5026215;28;19957;-68
2022/11/13 05:04:03;;;;;;;;;;;1.20;99.90;;;;;;5023923;28;19964;-68
2022/11/13 05:06:29;;;;;;;;;;;1.10;99.90;;;;;;5023464;28;19957;-68
2022/11/13 05:08:56;;;;;;;;;;;1.10;99.90;;;;;;5023823;28;19984;-68
2022/11/13 05:11:23;;;;;;;;;;;1.10;99.90;;;;;;5023827;28;19976;-68
2022/11/13 05:13:49;;;;;;;;;;;1.10;99.90;;;;;;5023595;28;19984;-69
2022/11/13 05:16:17;;;;;;;;;;;1.10;99.90;;;;;;5023649;28;19957;-68
2022/11/13 05:18:44;;;;;;;;;;;1.10;99.90;;;;;;5025998;28;19957;-70
2022/11/13 05:21:11;;;;;;;;;;;1.10;99.90;;;;;;5039164;28;19984;-67
2022/11/13 05:23:37;;;;;;;;;;;1.00;99.90;;;;;;5047599;28;20112;-68
2022/11/13 05:26:05;;;;;;;;;;;1.00;99.90;;;;;;5047282;28;19991;-69
2022/11/13 05:28:31;;;;;;;;;;;1.00;99.90;;;;;;5047315;28;19984;-68
2022/11/13 05:31:05;;;;;;;;;;;1.00;99.90;;;;;;5047425;28;19988;-69
2022/11/13 05:33:32;;;;;;;;;;;1.00;99.90;;;;;;5047115;28;19984;-68
2022/11/13 05:36:03;;;;;;;;;;;1.00;99.90;;;;;;5047099;28;19988;-68
2022/11/13 05:38:29;;;;;;;;;;;1.00;99.90;;;;;;5047085;28;19921;-68
2022/11/13 05:41:00;;;;;;;;;;;1.00;99.90;;;;;;5047232;28;19952;-68
2022/11/13 05:43:27;;;;;;;;;;;0.90;99.90;;;;;;5047173;28;19992;-68
2022/11/13 05:45:58;;;;;;;;;;;0.90;99.90;;;;;;5046929;28;20159;-68
2022/11/13 05:48:25;;;;;;;;;;;0.90;99.90;;;;;;5046827;28;19952;-68
2022/11/13 05:50:53;;;;;;;;;;;0.90;99.90;;;;;;5047122;28;19991;-68
2022/11/13 05:53:20;;;;;;;;;;;0.90;99.90;;;;;;5046627;28;19985;-68
2022/11/13 05:55:46;;;;;;;;;;;0.90;99.90;;;;;;5046430;28;19959;-68
2022/11/13 05:58:13;;;;;;;;;;;0.90;99.90;;;;;;5046917;28;20000;-68
2022/11/13 06:00:39;;;;;;;;;;;0.90;99.90;;;;;;5046648;28;19984;-68
2022/11/13 06:03:06;;;;;;;;;;;0.90;99.90;;;;;;5046494;28;20260;-68
2022/11/13 06:05:34;;;;;;;;;;;0.80;99.90;;;;;;5046701;28;19956;-68
2022/11/13 06:08:02;;;;;;;;;;;0.80;99.90;;;;;;5046758;28;19992;-68
2022/11/13 06:10:29;;;;;;;;;;;0.90;99.90;;;;;;5046628;28;19999;-68
2022/11/13 06:12:55;;;;;;;;;;;0.90;99.90;;;;;;5046677;28;19953;-69
2022/11/13 06:15:22;;;;;;;;;;;0.80;99.90;;;;;;5040371;28;19956;-68
2022/11/13 06:17:48;;;;;;;;;;;0.90;99.90;;;;;;5046565;28;19989;-68
2022/11/13 06:20:15;;;;;;;;;;;0.80;99.90;;;;;;5046544;28;19956;-68
2022/11/13 06:22:42;;;;;;;;;;;0.80;99.90;;;;;;5054206;28;20259;-68
2022/11/13 06:25:10;;;;;;;;;;;0.80;99.90;;;;;;5046194;28;19983;-68
2022/11/13 06:27:36;;;;;;;;;;;0.80;99.90;;;;;;5046482;28;19992;-68
2022/11/13 06:30:03;;;;;;;;;;;0.80;99.90;;;;;;5045929;28;19965;-68
2022/11/13 06:32:30;;;;;;;;;;;0.80;99.90;;;;;;5046229;28;19984;-68
2022/11/13 06:34:57;;;;;;;;;;;0.80;99.90;;;;;;5045701;28;20254;-68
2022/11/13 06:37:23;;;;;;;;;;;0.80;99.90;;;;;;5046202;28;19984;-68
2022/11/13 06:39:50;;;;;;;;;;;0.70;99.90;;;;;;5046222;28;19952;-68
2022/11/13 06:42:18;;;;;;;;;;;0.70;99.90;;;;;;5044537;28;19953;-68
2022/11/13 06:44:44;;;;;;;;;;;0.70;99.90;;;;;;5025865;28;19989;-68
2022/11/13 06:47:11;;;;;;;;;;;0.80;99.90;;;;;;5026084;28;19989;-68
2022/11/13 06:49:38;;;;;;;;;;;0.80;99.90;;;;;;5025883;28;19989;-68
2022/11/13 06:52:05;;;;;;;;;;;0.80;99.90;;;;;;5025793;28;19985;-68
2022/11/13 06:54:32;;;;;;;;;;;0.80;99.90;;;;;;5025547;28;19988;-68
2022/11/13 06:56:58;;;;;;;;;;;0.70;99.90;;;;;;5026052;28;19953;-68
2022/11/13 06:59:26;;;;;;;;;;;0.70;99.90;;;;;;5030718;28;19988;-68
2022/11/13 07:01:53;;;;;;;;;;;0.80;99.90;;;;;;5026039;28;19964;-68
2022/11/13 07:04:19;;;;;;;;;;;0.70;99.90;;;;;;5025552;28;19996;-68
2022/11/13 07:06:46;;;;;;;;;;;0.80;99.90;;;;;;5031008;28;20167;-68
2022/11/13 07:09:13;;;;;;;;;;;0.80;99.90;;;;;;5045688;28;19988;-69
2022/11/13 07:11:39;;;;;;;;;;;0.80;99.90;;;;;;5045252;28;19952;-68
2022/11/13 07:14:06;;;;;;;;;;;0.80;99.90;;;;;;5045677;28;19988;-68
2022/11/13 07:16:34;;;;;;;;;;;0.80;99.90;;;;;;5044874;28;20228;-68
2022/11/13 07:19:00;;;;;;;;;;;0.90;99.90;;;;;;5045458;28;19948;-68
2022/11/13 07:21:27;;;;;;;;;;;0.90;99.90;;;;;;5054742;28;19952;-69
2022/11/13 07:23:54;;;;;;;;;;;0.90;99.90;;;;;;5064994;28;20052;-68
2022/11/13 07:26:21;;;;;;;;;;;0.90;99.90;;;;;;5065205;28;19960;-69
2022/11/13 07:28:48;;;;;;;;;;;0.90;99.90;;;;;;5065125;28;20240;-69
2022/11/13 07:31:16;;;;;;;;;;;0.90;99.90;;;;;;5065331;28;19959;-68
2022/11/13 07:33:44;;;;;;;;;;;0.90;99.90;;;;;;5055862;28;19952;-68
2022/11/13 07:36:11;;;;;;;;;;;0.90;99.90;;;;;;5024916;28;19984;-68
2022/11/13 07:38:37;;;;;;;;;;;0.90;99.90;;;;;;5043994;28;19964;-68
2022/11/13 07:41:04;;;;;;;;;;;1.00;99.90;;;;;;5044469;28;19976;-68
2022/11/13 07:43:31;;;;;;;;;;;0.90;99.90;;;;;;5045067;28;19992;-68
2022/11/13 07:45:58;;;;;;;;;;;0.90;99.90;;;;;;5044790;28;19984;-70
2022/11/13 07:48:26;;;;;;;;;;;1.00;99.90;;;;;;5044854;28;19985;-71
2022/11/13 07:50:54;;;;;;;;;;;1.00;99.90;;;;;;5044685;28;20216;-70
2022/11/13 07:53:21;;;;;;;;;;;1.00;99.90;;;;;;5044472;28;19976;-71
2022/11/13 07:55:47;;;;;;;;;;;1.10;99.90;;;;;;5044549;28;19984;-68
2022/11/13 07:58:14;;;;;;;;;;;1.10;99.90;;;;;;5044738;28;19965;-68
2022/11/13 08:00:41;;;;;;;;;;;1.10;99.90;;;;;;5044714;28;19952;-67
2022/11/13 08:03:08;;;;;;;;;;;1.20;99.90;;;;;;5044475;28;19921;-67
2022/11/13 08:05:35;;;;;;;;;;;1.20;99.90;;;;;;5044379;28;19953;-68
2022/11/13 08:08:03;;;;;;;;;;;1.30;99.90;;;;;;5044306;28;20165;-68
2022/11/13 08:10:30;;;;;;;;;;;1.30;99.90;;;;;;5044633;28;20163;-68
2022/11/13 08:13:00;;;;;;;;;;;1.40;99.90;;;;;;5044402;28;19941;-68
2022/11/13 08:15:27;;;;;;;;;;;1.40;99.90;;;;;;5044237;28;19927;-67
2022/11/13 08:17:54;;;;;;;;;;;1.40;99.90;;;;;;5044726;28;20043;-68
2022/11/13 08:20:21;;;;;;;;;;;1.50;99.90;;;;;;5042313;28;19957;-67
2022/11/13 08:22:47;;;;;;;;;;;1.50;99.90;;;;;;5024152;28;19928;-67
2022/11/13 08:25:16;;;;;;;;;;;1.60;99.90;;;;;;5029208;28;19984;-67
2022/11/13 08:27:42;;;;;;;;;;;1.70;99.90;;;;;;5044347;28;19987;-67
2022/11/13 08:30:09;;;;;;;;;;;1.80;99.90;;;;;;5043930;28;20220;-67
2022/11/13 08:32:36;;;;;;;;;;;1.80;99.90;;;;;;5044109;28;19993;-68
2022/11/13 08:35:03;;;;;;;;;;;1.90;99.90;;;;;;5043506;28;19980;-67
2022/11/13 08:37:29;;;;;;;;;;;2.00;99.90;;;;;;5044206;28;19956;-67
2022/11/13 08:39:56;;;;;;;;;;;2.10;99.90;;;;;;5043638;28;20260;-68
2022/11/13 08:42:24;;;;;;;;;;;2.10;99.90;;;;;;5043959;28;19985;-67
2022/11/13 08:44:51;;;;;;;;;;;2.30;99.90;;;;;;5043830;28;19996;-67
2022/11/13 08:47:17;;;;;;;;;;;2.40;99.90;;;;;;5044022;28;20015;-67
2022/11/13 08:49:44;;;;;;;;;;;2.40;99.90;;;;;;5043785;28;20262;-68
2022/11/13 08:52:10;;;;;;;;;;;2.50;99.90;;;;;;5043500;28;19984;-68
2022/11/13 08:54:37;;;;;;;;;;;2.60;99.90;;;;;;5043098;28;19927;-68
2022/11/13 08:57:04;;;;;;;;;;;2.70;99.90;;;;;;5042951;28;20263;-67
2022/11/13 08:59:32;;;;;;;;;;;2.70;99.90;;;;;;5042761;28;19952;-68
2022/11/13 09:01:58;;;;;;;;;;;2.80;99.90;;;;;;5041410;28;19988;-68
2022/11/13 09:04:25;;;;;;;;;;;2.90;99.90;;;;;;5057274;28;20111;-67
2022/11/13 09:06:52;;;;;;;;;;;3.00;99.90;;;;;;5062613;28;19984;-67
2022/11/13 09:09:18;;;;;;;;;;;3.10;99.90;;;;;;5062920;28;19920;-68
2022/11/13 09:11:45;;;;;;;;;;;3.20;99.90;;;;;;5062744;28;19963;-68
2022/11/13 09:14:12;;;;;;;;;;;3.30;99.90;;;;;;5062840;28;19960;-67
2022/11/13 09:16:40;;;;;;;;;;;3.50;99.90;;;;;;5062425;28;19991;-67
2022/11/13 09:19:06;;;;;;;;;;;3.60;99.90;;;;;;5053508;28;19921;-68
2022/11/13 09:21:33;;;;;;;;;;;3.80;99.90;;;;;;5042704;28;20172;-68
2022/11/13 09:24:00;;;;;;;;;;;3.90;99.90;;;;;;5042415;28;20232;-68
2022/11/13 09:26:26;;;;;;;;;;;4.10;99.90;;;;;;5042227;28;19993;-67
2022/11/13 09:28:55;;;;;;;;;;;4.30;99.90;;;;;;5042263;28;19992;-67
2022/11/13 09:31:22;;;;;;;;;;;4.50;99.90;;;;;;5042496;28;19988;-67
2022/11/13 09:33:50;;;;;;;;;;;4.60;99.90;;;;;;5042682;28;19984;-67
2022/11/13 09:36:16;;;;;;;;;;;4.80;99.90;;;;;;5042367;28;19949;-67
2022/11/13 09:38:43;;;;;;;;;;;4.90;99.90;;;;;;5042602;28;19936;-67
2022/11/13 09:41:11;;;;;;;;;;;5.10;99.90;;;;;;5042281;28;19963;-68
2022/11/13 09:43:41;;;;;;;;;;;5.20;99.90;;;;;;5042441;28;20003;-67
2022/11/13 09:46:11;;;;;;;;;;;5.40;99.90;;;;;;5042024;28;19921;-68
2022/11/13 09:48:38;;;;;;;;;;;5.60;99.90;;;;;;5042201;28;19988;-68
2022/11/13 09:53:53;;;;;;;;;;;5.90;99.90;;;;;;5121557;27;20162;-69
2022/11/13 09:56:24;;;;;;;;;;;6.00;99.90;;;;;;5121108;28;19947;-73
2022/11/13 09:58:56;;;;;;;;;;;6.20;99.90;;;;;;5121625;28;19983;-69
2022/11/13 10:01:25;;;;;;;;;;;6.30;99.90;;;;;;5111067;28;19951;-69
2022/11/13 10:03:54;;;;;;;;;;;6.40;99.90;;;;;;5120933;28;20011;-72
2022/11/13 10:06:23;;;;;;;;;;;6.50;99.90;;;;;;5120253;28;19995;-71
2022/11/13 10:08:51;;;;;;;;;;;6.70;99.90;;;;;;5121292;28;19991;-71
2022/11/13 10:11:23;;;;;;;;;;;6.80;99.90;;;;;;5121207;28;19943;-70
2022/11/13 10:13:52;;;;;;;;;;;6.90;99.90;;;;;;5121191;28;19920;-69
2022/11/13 10:16:23;;;;;;;;;;;7.10;99.90;;;;;;5120918;28;19982;-69
2022/11/13 10:18:50;;;;;;;;;;;7.20;99.90;;;;;;5120849;28;20287;-69
2022/11/13 10:21:27;;;;;;;;;;;7.40;99.90;;;;;;5121152;28;19986;-69
2022/11/13 10:23:55;;;;;;;;;;;7.60;99.90;;;;;;5120958;28;19920;-69
2022/11/13 10:26:24;;;;;;;;;;;7.70;99.90;;;;;;5120645;28;19951;-73
2022/11/13 10:28:56;;;;;;;;;;;7.90;99.90;;;;;;5120813;28;19923;-70
2022/11/13 10:31:22;;;;;;;;;;;8.10;99.90;;;;;;5120933;28;19987;-69
2022/11/13 10:33:50;;;;;;;;;;;8.30;99.90;;;;;;5120778;28;19959;-69
2022/11/13 10:36:21;;;;;;;;;;;8.40;99.90;;;;;;5120663;28;19935;-68
2022/11/13 10:38:49;;;;;;;;;;;8.60;99.90;;;;;;5120893;28;19927;-70
2022/11/13 10:41:16;;;;;;;;;;;8.70;99.90;;;;;;5120614;28;19920;-70
2022/11/13 10:43:54;;;;;;;;;;;8.90;99.90;;;;;;5120510;28;19962;-68
2022/11/13 10:46:21;;;;;;;;;;;9.00;99.90;;;;;;5120418;28;19951;-69
2022/11/13 10:48:48;;;;;;;;;;;9.10;99.90;;;;;;5120637;28;19987;-68
2022/11/13 10:51:22;;;;;;;;;;;9.30;99.90;;;;;;5120531;28;20064;-69
2022/11/13 10:53:49;;;;;;;;;;;9.40;99.90;;;;;;5120500;28;19994;-71
2022/11/13 10:56:21;;;;;;;;;;;9.60;99.90;;;;;;5120010;28;20283;-72
2022/11/13 10:59:01;;;;;;;;;;;9.70;99.90;;;;;;5120388;28;19966;-71
2022/11/13 11:01:27;;;;;;;;;;;9.90;99.90;;;;;;5105982;28;19931;-71
2022/11/13 11:03:54;;;;;;;;;;;10.10;99.90;;;;;;5113605;28;19987;-71
2022/11/13 11:06:30;;;;;;;;;;;10.30;99.90;;;;;;5106526;28;19984;-71
2022/11/13 11:09:04;;;;;;;;;;;10.50;99.90;;;;;;5106757;28;19992;-73
2022/11/13 11:14:20;;;;;;;;;;;10.80;99.90;;;;;;5106447;28;19984;-71
2022/11/13 11:16:48;;;;;;;;;;;10.90;99.90;;;;;;5105948;28;19951;-70
2022/11/13 11:19:15;;;;;;;;;;;11.00;99.90;;;;;;5106573;28;19986;-71
2022/11/13 11:21:42;;;;;;;;;;;11.10;99.90;;;;;;5098974;28;19999;-72
2022/11/13 11:24:11;;;;;;;;;;;11.30;99.90;;;;;;5086235;28;19983;-71
2022/11/13 11:26:40;;;;;;;;;;;11.40;99.90;;;;;;5085358;28;19921;-71
2022/11/13 11:29:13;;;;;;;;;;;11.50;99.90;;;;;;5086146;28;19959;-69
2022/11/13 11:31:44;;;;;;;;;;;11.60;99.90;;;;;;5085594;28;19983;-68
2022/11/13 11:34:14;;;;;;;;;;;11.80;99.90;;;;;;5085779;28;19920;-69
2022/11/13 11:36:44;;;;;;;;;;;12.00;99.90;;;;;;5085456;28;19927;-68
2022/11/13 11:39:22;;;;;;;;;;;12.10;99.90;;;;;;5085558;28;19983;-68
2022/11/13 11:41:51;;;;;;;;;;;12.20;99.90;;;;;;5085766;28;19921;-68
2022/11/13 11:44:22;;;;;;;;;;;12.30;99.90;;;;;;5084647;28;19924;-68
2022/11/13 11:46:50;;;;;;;;;;;12.30;99.90;;;;;;5085458;28;19951;-69
2022/11/13 11:49:16;;;;;;;;;;;12.30;99.90;;;;;;5085793;28;20132;-68
2022/11/13 11:51:49;;;;;;;;;;;12.40;99.90;;;;;;5085539;28;19991;-69
2022/11/13 11:54:21;;;;;;;;;;;12.50;99.90;;;;;;5085960;28;20003;-68
2022/11/13 11:56:51;;;;;;;;;;;12.60;99.90;;;;;;5100057;28;20282;-70
2022/11/13 11:59:45;;;;;;;;;;;12.70;99.90;;;;;;5101381;28;19951;-69
2022/11/13 12:02:34;;;;;;;;;;;12.90;99.90;;;;;;5098047;28;19920;-68
2022/11/13 12:05:05;;;;;;;;;;;13.00;99.90;;;;;;5105299;28;20180;-70
2022/11/13 12:07:36;;;;;;;;;;;13.10;99.90;;;;;;5105550;28;20168;-68
2022/11/13 12:10:07;;;;;;;;;;;13.10;99.90;;;;;;5105454;28;19982;-68
2022/11/13 12:12:43;;;;;;;;;;;13.20;99.90;;;;;;5105328;28;19991;-68
2022/11/13 12:15:14;;;;;;;;;;;13.20;99.90;;;;;;5092523;28;19983;-69
2022/11/13 12:17:48;;;;;;;;;;;13.20;99.90;;;;;;5101058;28;20116;-68
2022/11/13 12:20:24;;;;;;;;;;;13.20;99.90;;;;;;5085082;28;20111;-69
2022/11/13 12:22:56;;;;;;;;;;;13.20;99.90;;;;;;5085995;28;19927;-69
2022/11/13 12:25:26;;;;;;;;;;;13.20;99.90;;;;;;5104653;28;20116;-70
2022/11/13 12:27:56;;;;;;;;;;;13.30;99.90;;;;;;5105125;28;19927;-71
2022/11/13 12:30:25;;;;;;;;;;;13.40;99.90;;;;;;5101733;28;19979;-68
2022/11/13 12:33:06;;;;;;;;;;;13.50;99.90;;;;;;5084583;28;19952;-68
2022/11/13 12:35:33;;;;;;;;;;;13.60;99.90;;;;;;5084434;28;19920;-70
2022/11/13 12:38:03;;;;;;;;;;;13.60;99.90;;;;;;5084614;28;19988;-68
2022/11/13 12:40:34;;;;;;;;;;;13.60;99.90;;;;;;5084619;28;19991;-70
2022/11/13 12:43:06;;;;;;;;;;;13.60;99.90;;;;;;5084369;28;19988;-68
2022/11/13 12:45:42;;;;;;;;;;;13.70;99.90;;;;;;5091036;28;20255;-70
2022/11/13 12:48:21;;;;;;;;;;;13.70;99.90;;;;;;5104390;28;19984;-70
2022/11/13 12:50:56;;;;;;;;;;;13.80;99.90;;;;;;5104775;28;19920;-70
2022/11/13 12:53:24;;;;;;;;;;;13.90;99.90;;;;;;5103693;28;20029;-67
2022/11/13 12:55:58;;;;;;;;;;;14.00;99.90;;;;;;5083856;28;19955;-67
2022/11/13 12:58:26;;;;;;;;;;;14.10;99.90;;;;;;5083941;28;19920;-68
2022/11/13 13:00:53;;;;;;;;;;;14.10;99.90;;;;;;5091232;28;19982;-68
2022/11/13 13:03:38;;;;;;;;;;;14.10;99.90;;;;;;5104220;28;19979;-68
2022/11/13 13:06:13;;;;;;;;;;;14.20;99.90;;;;;;5103807;28;19966;-68
2022/11/13 13:09:00;;;;;;;;;;;14.20;99.90;;;;;;5104381;28;20180;-68
2022/11/13 13:11:31;;;;;;;;;;;14.20;99.90;;;;;;5098289;28;19991;-68
2022/11/13 13:14:06;;;;;;;;;;;14.20;99.90;;;;;;5099614;28;19920;-68
2022/11/13 13:16:33;;;;;;;;;;;14.30;99.90;;;;;;5090794;28;19983;-68
2022/11/13 13:19:22;;;;;;;;;;;14.30;99.90;;;;;;5104086;28;19990;-68
2022/11/13 13:21:49;;;;;;;;;;;14.40;99.90;;;;;;5088625;28;19987;-68
2022/11/13 13:24:36;;;;;;;;;;;14.40;99.90;;;;;;5103866;28;19951;-68
2022/11/13 13:27:20;;;;;;;;;;;14.60;99.90;;;;;;5098337;28;19928;-68
2022/11/13 13:29:47;;;;;;;;;;;14.60;99.90;;;;;;5103979;28;19999;-70
2022/11/13 13:32:16;;;;;;;;;;;14.60;99.90;;;;;;5103954;28;19927;-68
2022/11/13 13:34:49;;;;;;;;;;;14.60;99.90;;;;;;5103618;28;19987;-68
2022/11/13 13:37:21;;;;;;;;;;;14.50;99.90;;;;;;5103875;28;19978;-68
2022/11/13 13:39:54;;;;;;;;;;;14.50;99.90;;;;;;5089778;28;19980;-68
2022/11/13 13:42:29;;;;;;;;;;;14.40;99.90;;;;;;5083190;28;19988;-68
2022/11/13 13:45:04;;;;;;;;;;;14.40;99.90;;;;;;5083361;28;20215;-68
2022/11/13 13:47:31;;;;;;;;;;;14.20;99.90;;;;;;5083659;28;19979;-68
2022/11/13 13:49:59;;;;;;;;;;;14.00;99.90;;;;;;5083467;28;19920;-70
2022/11/13 13:52:28;;;;;;;;;;;13.80;99.90;;;;;;5083149;28;19980;-67
2022/11/13 13:54:55;;;;;;;;;;;13.60;99.90;;;;;;5086316;28;19990;-71
2022/11/13 13:57:21;;;;;;;;;;;13.40;99.90;;;;;;5103612;28;19927;-70
2022/11/13 13:59:49;;;;;;;;;;;13.30;99.90;;;;;;5095289;28;19980;-68
2022/11/13 14:02:17;;;;;;;;;;;13.20;99.90;;;;;;5096182;28;19920;-68
2022/11/13 14:04:45;;;;;;;;;;;13.20;99.90;;;;;;5102866;28;19952;-68
2022/11/13 14:07:21;;;;;;;;;;;13.10;99.90;;;;;;5092031;28;19920;-68
2022/11/13 14:09:48;;;;;;;;;;;13.10;99.90;;;;;;5083290;28;19956;-68
2022/11/13 14:12:20;;;;;;;;;;;13.30;99.90;;;;;;5086295;28;19999;-71
2022/11/13 14:14:47;;;;;;;;;;;13.30;99.90;;;;;;5094555;28;19984;-67
2022/11/13 14:17:21;;;;;;;;;;;13.40;99.90;;;;;;5095711;28;19980;-68
2022/11/13 14:19:51;;;;;;;;;;;13.40;99.90;;;;;;5083103;28;19996;-70
2022/11/13 14:22:17;;;;;;;;;;;13.40;99.90;;;;;;5091949;28;20389;-68
2022/11/13 14:24:49;;;;;;;;;;;13.50;99.90;;;;;;5102313;28;19967;-68
2022/11/13 14:27:18;;;;;;;;;;;13.60;99.90;;;;;;5103200;28;19983;-68
2022/11/13 14:29:46;;;;;;;;;;;13.60;99.90;;;;;;5084213;28;19979;-68
2022/11/13 14:32:14;;;;;;;;;;;13.50;99.90;;;;;;5082973;28;19920;-70
2022/11/13 14:34:43;;;;;;;;;;;13.50;99.90;;;;;;5083594;28;19983;-68
2022/11/13 14:37:17;;;;;;;;;;;13.50;99.90;;;;;;5103159;28;19996;-67
2022/11/13 14:39:45;;;;;;;;;;;13.50;99.90;;;;;;5105468;28;19952;-68
2022/11/13 14:42:16;;;;;;;;;;;13.50;99.90;;;;;;5104947;28;20223;-70